createdAt,value
2022-08-28T00:00:38.075Z,6.00
2022-08-28T00:03:43.193Z,3.90
2022-08-28T00:06:46.035Z,4.78
2022-08-28T00:09:49.198Z,4.57
2022-08-28T00:12:55.814Z,4.90
2022-08-28T00:16:03.287Z,5.22
2022-08-28T00:19:06.794Z,5.22
2022-08-28T00:22:09.470Z,5.28
2022-08-28T00:25:13.520Z,4.25
2022-08-28T00:28:23.926Z,4.55
2022-08-28T00:31:27.385Z,4.80
2022-08-28T00:34:33.278Z,4.43
2022-08-28T00:37:36.343Z,5.90
2022-08-28T00:40:44.513Z,3.92
2022-08-28T00:43:51.685Z,4.95
2022-08-28T00:46:57.867Z,4.20
2022-08-28T00:50:00.154Z,4.15
2022-08-28T00:53:02.861Z,4.60
2022-08-28T00:56:12.290Z,4.72
2022-08-28T00:59:19.952Z,4.78
2022-08-28T01:02:22.340Z,4.82
2022-08-28T01:05:26.225Z,3.87
2022-08-28T01:08:30.430Z,4.30
2022-08-28T01:11:33.788Z,3.40
2022-08-28T01:14:39.123Z,4.80
2022-08-28T01:17:46.254Z,4.28
2022-08-28T01:21:01.817Z,3.47
2022-08-28T01:24:11.829Z,4.20
2022-08-28T01:27:14.165Z,4.10
2022-08-28T01:30:22.293Z,3.25
2022-08-28T01:33:28.277Z,5.75
2022-08-28T01:36:31.288Z,3.33
2022-08-28T01:39:33.702Z,3.85
2022-08-28T01:42:39.357Z,4.28
2022-08-28T01:45:44.520Z,2.50
2022-08-28T01:48:47.205Z,2.65
2022-08-28T01:51:49.910Z,3.65
2022-08-28T01:54:55.223Z,2.97
2022-08-28T01:57:59.826Z,2.67
2022-08-28T02:01:02.359Z,2.93
2022-08-28T02:04:05.221Z,3.28
2022-08-28T02:07:07.663Z,3.00
2022-08-28T02:10:12.025Z,2.83
2022-08-28T02:13:14.665Z,2.90
2022-08-28T02:16:17.731Z,3.20
2022-08-28T02:19:20.934Z,3.83
2022-08-28T02:25:28.037Z,2.47
2022-08-28T02:28:31.095Z,3.62
2022-08-28T02:31:33.866Z,3.25
2022-08-28T02:34:37.158Z,3.75
2022-08-28T02:37:40.197Z,3.78
2022-08-28T02:40:43.326Z,3.08
2022-08-28T02:43:45.754Z,2.60
2022-08-28T02:46:48.607Z,3.50
2022-08-28T02:49:50.825Z,2.53
2022-08-28T02:52:53.710Z,2.87
2022-08-28T02:55:56.957Z,3.43
2022-08-28T02:58:59.656Z,3.05
2022-08-28T03:02:04.158Z,3.12
2022-08-28T03:05:08.040Z,3.70
2022-08-28T03:08:10.543Z,3.08
2022-08-28T03:11:13.241Z,4.12
2022-08-28T03:14:15.847Z,3.43
2022-08-28T03:17:19.280Z,2.87
2022-08-28T03:20:21.851Z,4.50
2022-08-28T03:23:27.944Z,3.12
2022-08-28T03:26:30.663Z,3.45
2022-08-28T03:29:33.258Z,3.55
2022-08-28T03:32:36.317Z,2.60
2022-08-28T03:38:42.079Z,2.75
2022-08-28T03:41:44.789Z,3.30
2022-08-28T03:44:47.705Z,3.25
2022-08-28T03:47:51.281Z,3.12
2022-08-28T03:57:02.941Z,3.28
2022-08-28T04:00:11.445Z,3.65
2022-08-28T04:03:14.380Z,3.40
2022-08-28T04:06:17.334Z,3.10
2022-08-28T04:09:19.586Z,3.35
2022-08-28T04:12:22.200Z,2.73
2022-08-28T04:15:26.125Z,3.12
2022-08-28T04:18:29.817Z,3.92
2022-08-28T04:21:32.076Z,4.15
2022-08-28T04:24:34.761Z,4.50
2022-08-28T04:27:37.836Z,3.95
2022-08-28T04:30:41.931Z,3.40
2022-08-28T04:33:44.288Z,2.77
2022-08-28T04:39:53.098Z,3.30
2022-08-28T04:45:58.950Z,5.50
2022-08-28T04:49:02.387Z,3.33
2022-08-28T04:52:05.578Z,3.87
2022-08-28T04:55:08.916Z,4.12
2022-08-28T05:01:18.973Z,3.30
2022-08-28T05:04:21.669Z,3.58
2022-08-28T05:07:24.648Z,3.75
2022-08-28T05:10:27.224Z,3.35
2022-08-28T05:13:29.813Z,3.70
2022-08-28T05:16:34.982Z,3.65
2022-08-28T05:19:37.653Z,3.70
2022-08-28T05:22:40.236Z,4.32
2022-08-28T05:25:46.911Z,3.53
2022-08-28T05:28:49.631Z,3.28
2022-08-28T05:31:53.054Z,2.47
2022-08-28T05:37:59.000Z,3.28
2022-08-28T05:41:03.340Z,2.97
2022-08-28T05:44:09.685Z,3.10
2022-08-28T05:47:13.091Z,3.40
2022-08-28T05:50:15.741Z,3.42
2022-08-28T05:53:18.207Z,3.53
2022-08-28T05:56:23.787Z,3.75
2022-08-28T05:59:27.273Z,2.80
2022-08-28T06:02:30.117Z,2.40
2022-08-28T06:05:32.781Z,3.03
2022-08-28T06:08:36.200Z,3.27
2022-08-28T06:11:44.868Z,2.70
2022-08-28T06:14:50.054Z,3.17
2022-08-28T06:17:53.885Z,2.92
2022-08-28T06:20:56.217Z,3.05
2022-08-28T06:23:59.565Z,3.20
2022-08-28T06:27:01.841Z,2.92
2022-08-28T06:30:05.582Z,3.03
2022-08-28T06:33:08.190Z,2.70
2022-08-28T06:36:12.365Z,2.85
2022-08-28T06:39:15.137Z,3.08
2022-08-28T06:42:17.964Z,3.40
2022-08-28T06:45:20.307Z,3.08
2022-08-28T06:48:26.291Z,2.50
2022-08-28T06:51:29.749Z,2.62
2022-08-28T06:54:32.497Z,3.10
2022-08-28T07:03:42.516Z,3.25
2022-08-28T07:06:53.736Z,3.00
2022-08-28T07:09:56.281Z,2.90
2022-08-28T07:13:00.425Z,2.62
2022-08-28T07:16:03.564Z,3.40
2022-08-28T07:19:10.417Z,3.00
2022-08-28T07:22:12.986Z,3.30
2022-08-28T07:25:17.159Z,3.10
2022-08-28T07:28:21.294Z,2.78
2022-08-28T07:31:27.448Z,3.35
2022-08-28T07:34:29.942Z,3.53
2022-08-28T07:37:32.879Z,3.78
2022-08-28T07:40:36.740Z,2.80
2022-08-28T07:44:11.741Z,3.45
2022-08-28T07:47:14.147Z,3.45
2022-08-28T07:50:17.099Z,4.07
2022-08-28T07:53:19.810Z,4.20
2022-08-28T07:56:22.409Z,3.42
2022-08-28T07:59:25.058Z,3.40
2022-08-28T08:02:30.024Z,3.40
2022-08-28T08:05:32.755Z,3.78
2022-08-28T08:08:35.279Z,3.58
2022-08-28T08:11:38.778Z,3.35
2022-08-28T08:14:43.832Z,4.05
2022-08-28T08:17:47.241Z,3.62
2022-08-28T08:20:49.533Z,3.47
2022-08-28T08:23:52.288Z,4.35
2022-08-28T08:26:59.565Z,3.35
2022-08-28T08:30:03.851Z,3.62
2022-08-28T08:33:06.779Z,3.62
2022-08-28T08:36:12.123Z,3.70
2022-08-28T08:39:14.697Z,3.40
2022-08-28T08:42:31.540Z,3.83
2022-08-28T08:45:36.120Z,3.78
2022-08-28T08:48:41.131Z,3.35
2022-08-28T08:51:48.424Z,3.40
2022-08-28T08:55:19.326Z,4.03
2022-08-28T08:58:25.875Z,3.45
2022-08-28T09:01:55.390Z,2.97
2022-08-28T09:05:05.062Z,4.62
2022-08-28T09:08:16.283Z,3.53
2022-08-28T09:11:27.530Z,3.28
2022-08-28T09:14:41.678Z,4.32
2022-08-28T09:17:53.282Z,3.33
2022-08-28T09:20:59.048Z,4.03
2022-08-28T09:24:05.769Z,3.72
2022-08-28T09:27:31.811Z,3.92
2022-08-28T09:30:42.309Z,3.80
2022-08-28T09:33:46.814Z,3.87
2022-08-28T09:36:50.395Z,3.97
2022-08-28T09:40:23.895Z,3.90
2022-08-28T09:43:26.720Z,3.55
2022-08-28T09:49:33.099Z,3.62
2022-08-28T09:52:35.733Z,4.20
2022-08-28T09:55:47.012Z,4.00
2022-08-28T09:58:54.724Z,3.85
2022-08-28T10:02:13.461Z,4.05
2022-08-28T10:05:25.784Z,4.40
2022-08-28T10:08:35.260Z,4.07
2022-08-28T10:11:46.837Z,3.65
2022-08-28T10:15:16.823Z,3.75
2022-08-28T10:19:07.311Z,3.75
2022-08-28T10:22:33.548Z,3.72
2022-08-28T10:26:03.339Z,4.10
2022-08-28T10:29:33.386Z,4.03
2022-08-28T10:32:42.066Z,3.55
2022-08-28T10:35:55.543Z,4.10
2022-08-28T10:39:26.252Z,2.95
2022-08-28T10:42:54.036Z,3.60
2022-08-28T10:46:01.388Z,3.67
2022-08-28T10:49:10.926Z,3.80
2022-08-28T10:52:27.604Z,3.30
2022-08-28T10:55:36.601Z,3.20
2022-08-28T10:58:40.919Z,3.12
2022-08-28T11:01:45.139Z,3.72
2022-08-28T11:04:49.348Z,3.12
2022-08-28T11:07:56.547Z,3.10
2022-08-28T11:11:01.973Z,2.62
2022-08-28T11:14:04.591Z,2.65
2022-08-28T11:17:31.526Z,2.80
2022-08-28T11:20:34.513Z,2.80
2022-08-28T11:23:49.560Z,3.00
2022-08-28T11:27:21.542Z,3.12
2022-08-28T11:30:33.520Z,3.08
2022-08-28T11:33:42.060Z,3.22
2022-08-28T11:36:44.793Z,3.00
2022-08-28T11:39:47.073Z,3.62
2022-08-28T11:42:49.872Z,3.05
2022-08-28T11:45:55.211Z,2.70
2022-08-28T11:49:00.431Z,2.62
2022-08-28T11:52:42.059Z,3.50
2022-08-28T11:56:01.597Z,2.20
2022-08-28T11:59:35.519Z,3.72
2022-08-28T12:02:43.125Z,3.33
2022-08-28T12:05:52.398Z,3.37
2022-08-28T12:08:55.524Z,2.78
2022-08-28T12:12:06.603Z,2.83
2022-08-28T12:15:11.547Z,2.90
2022-08-28T12:18:40.270Z,2.85
2022-08-28T12:21:43.551Z,2.97
2022-08-28T12:25:01.063Z,3.12
2022-08-28T12:28:28.763Z,3.05
2022-08-28T12:32:14.003Z,2.67
2022-08-28T12:35:22.858Z,2.78
2022-08-28T12:38:29.033Z,2.67
2022-08-28T12:41:33.129Z,2.75
2022-08-28T12:44:35.725Z,2.75
2022-08-28T12:47:39.038Z,3.37
2022-08-28T12:50:41.785Z,2.83
2022-08-28T12:53:50.697Z,3.10
2022-08-28T12:56:55.335Z,2.75
2022-08-28T13:00:09.257Z,3.53
2022-08-28T13:03:12.068Z,2.95
2022-08-28T13:06:25.010Z,3.33
2022-08-28T13:09:28.918Z,2.90
2022-08-28T13:12:54.854Z,3.10
2022-08-28T13:16:02.239Z,3.62
2022-08-28T13:19:04.458Z,2.72
2022-08-28T13:22:28.559Z,3.87
2022-08-28T13:25:35.418Z,2.85
2022-08-28T13:28:40.467Z,4.10
2022-08-28T13:31:44.157Z,3.20
2022-08-28T13:35:20.312Z,3.62
2022-08-28T13:38:25.167Z,3.87
2022-08-28T13:41:29.844Z,3.62
2022-08-28T13:44:35.351Z,3.17
2022-08-28T13:47:38.467Z,3.40
2022-08-28T13:50:46.930Z,3.50
2022-08-28T13:53:50.540Z,3.35
2022-08-28T13:56:54.854Z,3.45
2022-08-28T13:59:57.580Z,4.15
2022-08-28T14:03:18.537Z,4.10
2022-08-28T14:06:21.583Z,3.62
2022-08-28T14:09:29.390Z,3.47
2022-08-28T14:12:33.622Z,3.00
2022-08-28T14:15:36.289Z,3.70
2022-08-28T14:18:39.243Z,4.10
2022-08-28T14:21:42.045Z,3.20
2022-08-28T14:24:44.767Z,3.50
2022-08-28T14:27:47.035Z,3.75
2022-08-28T14:30:51.510Z,3.78
2022-08-28T14:33:53.929Z,3.83
2022-08-28T14:36:57.992Z,3.67
2022-08-28T14:40:01.516Z,3.55
2022-08-28T14:43:06.872Z,4.30
2022-08-28T14:46:15.823Z,3.92
2022-08-28T14:49:20.929Z,4.10
2022-08-28T14:52:23.521Z,3.90
2022-08-28T14:55:26.920Z,4.12
2022-08-28T14:58:29.147Z,3.83
2022-08-28T15:01:40.860Z,3.00
2022-08-28T15:04:45.011Z,4.12
2022-08-28T15:07:47.624Z,3.20
2022-08-28T15:10:51.653Z,3.28
2022-08-28T15:13:58.272Z,3.72
2022-08-28T15:17:00.661Z,3.08
2022-08-28T15:20:04.940Z,3.42
2022-08-28T15:23:08.102Z,3.53
2022-08-28T15:26:15.209Z,3.67
2022-08-28T15:29:18.104Z,3.47
2022-08-28T15:32:21.289Z,3.53
2022-08-28T15:35:23.729Z,3.20
2022-08-28T15:38:26.433Z,4.00
2022-08-28T15:41:30.992Z,3.97
2022-08-28T15:44:34.311Z,3.65
2022-08-28T15:47:37.196Z,3.35
2022-08-28T15:50:41.631Z,3.67
2022-08-28T15:53:45.299Z,3.62
2022-08-28T15:56:50.696Z,3.50
2022-08-28T15:59:55.408Z,3.85
2022-08-28T16:02:59.989Z,3.62
2022-08-28T16:06:03.033Z,3.35
2022-08-28T16:09:06.909Z,3.12
2022-08-28T16:12:09.646Z,3.80
2022-08-28T16:15:12.278Z,4.20
2022-08-28T16:18:16.090Z,3.85
2022-08-28T16:21:19.732Z,3.60
2022-08-28T16:24:22.354Z,3.50
2022-08-28T16:27:24.639Z,4.03
2022-08-28T16:30:27.291Z,3.60
2022-08-28T16:33:30.383Z,3.57
2022-08-28T16:36:33.497Z,4.10
2022-08-28T16:39:36.426Z,3.70
2022-08-28T16:42:39.285Z,3.58
2022-08-28T16:45:44.148Z,3.65
2022-08-28T16:48:47.833Z,3.25
2022-08-28T16:51:50.255Z,3.47
2022-08-28T16:54:53.283Z,3.53
2022-08-28T16:57:56.105Z,3.05
2022-08-28T17:00:59.360Z,4.25
2022-08-28T17:04:01.854Z,3.22
2022-08-28T17:07:05.255Z,2.90
2022-08-28T17:10:10.178Z,3.53
2022-08-28T17:13:13.035Z,3.15
2022-08-28T17:16:16.536Z,3.40
2022-08-28T17:19:20.915Z,2.78
2022-08-28T17:22:32.674Z,3.50
2022-08-28T17:25:35.531Z,3.62
2022-08-28T17:28:40.814Z,2.80
2022-08-28T17:31:43.992Z,2.78
2022-08-28T17:34:46.497Z,3.08
2022-08-28T17:37:50.773Z,3.08
2022-08-28T17:40:53.380Z,3.03
2022-08-28T17:43:56.209Z,2.40
2022-08-28T17:46:58.490Z,2.80
2022-08-28T17:50:02.854Z,2.83
2022-08-28T17:53:05.651Z,2.92
2022-08-28T17:59:12.514Z,3.00
2022-08-28T18:02:17.187Z,3.12
2022-08-28T18:05:20.418Z,2.47
2022-08-28T18:08:22.785Z,2.42
2022-08-28T18:11:25.833Z,2.42
2022-08-28T18:14:28.523Z,3.40
2022-08-28T18:17:31.404Z,2.72
2022-08-28T18:20:33.738Z,2.58
2022-08-28T18:23:36.544Z,2.70
2022-08-28T18:26:40.959Z,2.50
2022-08-28T18:29:43.804Z,2.62
2022-08-28T18:32:46.120Z,2.10
2022-08-28T18:35:49.758Z,2.60
2022-08-28T18:38:52.477Z,2.50
2022-08-28T18:41:55.791Z,2.40
2022-08-28T18:44:58.196Z,1.98
2022-08-28T18:48:02.133Z,2.80
2022-08-28T18:51:10.427Z,2.47
2022-08-28T18:54:16.587Z,2.42
2022-08-28T18:57:19.108Z,2.90
2022-08-28T19:00:22.619Z,2.53
2022-08-28T19:03:25.014Z,2.50
2022-08-28T19:06:27.955Z,2.50
2022-08-28T19:09:33.099Z,2.20
2022-08-28T19:12:39.421Z,2.85
2022-08-28T19:15:42.685Z,2.80
2022-08-28T19:18:46.154Z,2.83
2022-08-28T19:21:50.679Z,2.25
2022-08-28T19:24:53.235Z,2.45
2022-08-28T19:27:58.957Z,2.20
2022-08-28T19:31:03.298Z,2.67
2022-08-28T19:34:07.899Z,2.47
2022-08-28T19:37:10.599Z,2.80
2022-08-28T19:40:13.511Z,2.27
2022-08-28T19:43:16.732Z,2.70
2022-08-28T19:49:23.943Z,3.05
2022-08-28T19:52:29.271Z,2.50
2022-08-28T19:55:32.388Z,2.22
2022-08-28T19:58:36.149Z,2.55
2022-08-28T20:01:47.887Z,2.60
2022-08-28T20:04:51.270Z,2.55
2022-08-28T20:07:53.578Z,2.50
2022-08-28T20:10:56.559Z,2.35
2022-08-28T20:14:04.570Z,2.30
2022-08-28T20:17:07.441Z,2.47
2022-08-28T20:20:11.687Z,2.30
2022-08-28T20:23:16.615Z,2.97
2022-08-28T20:26:21.045Z,2.75
2022-08-28T20:29:25.162Z,2.92
2022-08-28T20:32:27.693Z,3.05
2022-08-28T20:35:30.489Z,2.85
2022-08-28T20:38:33.736Z,3.20
2022-08-28T20:41:39.499Z,3.17
2022-08-28T20:44:41.927Z,3.10
2022-08-28T20:47:45.106Z,3.17
2022-08-28T20:50:48.356Z,3.97
2022-08-28T20:53:53.792Z,4.40
2022-08-28T20:56:59.267Z,3.33
2022-08-28T21:00:05.634Z,4.75
2022-08-28T21:03:12.195Z,3.72
2022-08-28T21:06:14.989Z,3.35
2022-08-28T21:09:17.711Z,3.87
2022-08-28T21:12:20.889Z,4.70
2022-08-28T21:18:26.118Z,3.62
2022-08-28T21:21:32.200Z,3.47
2022-08-28T21:24:37.077Z,3.55
2022-08-28T21:27:39.850Z,3.67
2022-08-28T21:30:43.045Z,3.85
2022-08-28T21:33:47.025Z,3.40
2022-08-28T21:36:51.012Z,3.15
2022-08-28T21:39:53.907Z,4.28
2022-08-28T21:42:59.154Z,3.83
2022-08-28T21:46:03.163Z,4.10
2022-08-28T21:49:07.146Z,3.97
2022-08-28T21:52:09.399Z,3.72
2022-08-28T21:55:15.079Z,3.92
2022-08-28T21:58:18.195Z,3.58
2022-08-28T22:01:24.005Z,3.72
2022-08-28T22:04:26.980Z,3.65
2022-08-28T22:07:29.357Z,4.47
2022-08-28T22:10:32.367Z,4.10
2022-08-28T22:13:36.458Z,4.03
2022-08-28T22:16:39.136Z,4.00
2022-08-28T22:19:41.742Z,4.62
2022-08-28T22:23:02.922Z,3.62
2022-08-28T22:26:08.533Z,3.87
2022-08-28T22:29:11.843Z,3.87
2022-08-28T22:32:15.209Z,3.78
2022-08-28T22:35:19.106Z,4.65
2022-08-28T22:38:23.018Z,4.43
2022-08-28T22:41:25.867Z,4.87
2022-08-28T22:44:29.440Z,4.60
2022-08-28T22:50:35.163Z,3.87
2022-08-28T22:53:41.261Z,4.05
2022-08-28T22:56:43.645Z,3.97
2022-08-28T22:59:46.427Z,4.50
2022-08-28T23:02:49.374Z,4.07
2022-08-28T23:05:52.303Z,3.92
2022-08-28T23:08:54.670Z,4.22
2022-08-28T23:12:00.265Z,4.15
2022-08-28T23:15:06.335Z,4.00
2022-08-28T23:18:09.560Z,4.00
2022-08-28T23:21:12.199Z,3.60
2022-08-28T23:24:16.169Z,4.07
2022-08-28T23:27:35.853Z,4.40
2022-08-28T23:30:41.321Z,3.65
2022-08-28T23:33:50.855Z,4.78
2022-08-28T23:36:54.525Z,4.00
2022-08-28T23:39:57.416Z,3.95
2022-08-28T23:43:02.876Z,4.70
2022-08-28T23:46:06.304Z,4.15
2022-08-28T23:49:09.908Z,4.85
2022-08-28T23:55:16.629Z,3.92
2022-08-28T23:58:22.365Z,4.57
